Time;durP1;ratioP1;P1;durP2;ratioP2;P2;SDS_P1;SDS_P2;PMS_P1;PMS_P2;Temp;Humidity;BMP_temperature;BMP_pressure;BME280_temperature;BME280_humidity;BME280_pressure;Samples;Min_cycle;Max_cycle;Signal;HPM_P1;HPM_P2
2022/08/11 00:02:28;;;;;;;5.32;4.50;;;;;;;25.61;48.23;99587.84;5154099;27;20022;-43
2022/08/11 00:04:55;;;;;;;4.75;4.30;;;;;;;25.79;47.88;99597.78;5153924;27;20466;-44
2022/08/11 00:07:22;;;;;;;7.25;4.55;;;;;;;25.99;47.49;99599.25;5152706;27;20050;-43
2022/08/11 00:09:48;;;;;;;5.18;4.68;;;;;;;26.21;46.54;99592.19;5153282;27;20022;-43
2022/08/11 00:12:16;;;;;;;5.93;4.90;;;;;;;25.63;48.61;99585.66;5153877;27;20026;-45
2022/08/11 00:14:43;;;;;;;6.30;4.45;;;;;;;25.68;48.64;99580.06;5153988;27;20027;-44
2022/08/11 00:17:12;;;;;;;5.38;4.88;;;;;;;25.84;47.89;99581.31;5153698;27;20026;-45
2022/08/11 00:19:41;;;;;;;7.87;4.83;;;;;;;26.12;47.56;99584.75;5153211;27;20049;-44
2022/08/11 00:22:09;;;;;;;6.95;4.90;;;;;;;26.03;47.60;99578.44;5153549;27;20015;-44
2022/08/11 00:24:37;;;;;;;5.07;4.57;;;;;;;25.83;48.20;99573.44;5153666;27;20031;-43
2022/08/11 00:27:04;;;;;;;5.75;4.55;;;;;;;25.79;48.33;99586.09;5153129;27;20548;-43
2022/08/11 00:29:30;;;;;;;5.28;4.78;;;;;;;25.77;48.44;99582.88;5153343;27;20030;-43
2022/08/11 00:32:00;;;;;;;9.13;4.95;;;;;;;26.05;47.71;99581.66;5153507;27;20030;-45
2022/08/11 00:34:28;;;;;;;5.30;4.80;;;;;;;25.41;49.46;99581.75;5153249;27;20529;-44
2022/08/11 00:36:58;;;;;;;5.30;4.80;;;;;;;25.24;50.15;99585.13;5153134;27;20159;-43
2022/08/11 00:39:26;;;;;;;4.50;4.10;;;;;;;25.50;49.31;99590.81;5152954;27;20046;-43
2022/08/11 00:42:17;;;;;;;4.75;4.25;;;;;;;25.65;49.02;99588.88;5153253;27;20114;-42
2022/08/11 00:45:00;;;;;;;5.13;4.63;;;;;;;25.96;47.95;99588.19;5153339;27;20142;-42
2022/08/11 00:47:33;;;;;;;6.88;5.05;;;;;;;25.49;49.25;99596.56;5153201;27;20029;-44
2022/08/11 00:50:13;;;;;;;5.43;4.60;;;;;;;25.20;50.03;99596.91;5152882;27;20011;-44
2022/08/11 00:53:03;;;;;;;5.63;5.03;;;;;;;25.44;50.07;99602.94;5152935;27;20033;-44
2022/08/11 00:55:58;;;;;;;9.48;5.22;;;;;;;25.27;50.52;99594.59;5152983;27;20088;-46
2022/08/11 00:58:48;;;;;;;6.65;5.88;;;;;;;25.24;51.25;99604.16;5149798;27;20027;-44
2022/08/11 01:01:16;;;;;;;7.05;5.30;;;;;;;25.16;51.89;99602.13;5152631;27;20022;-43
2022/08/11 01:04:27;;;;;;;6.25;5.32;;;;;;;25.13;52.17;99600.84;5152778;27;20109;-41
2022/08/11 01:07:12;;;;;;;7.60;5.30;;;;;;;25.36;51.65;99593.56;5152665;27;20474;-42
2022/08/11 01:09:47;;;;;;;7.28;5.50;;;;;;;25.59;50.27;99595.53;5152653;27;20366;-43
2022/08/11 01:12:17;;;;;;;6.45;5.60;;;;;;;25.19;51.78;99593.38;5152294;27;20030;-42
2022/08/11 01:15:10;;;;;;;5.80;5.20;;;;;;;24.89;52.68;99583.91;5152745;27;20050;-43
2022/08/11 01:17:54;;;;;;;8.65;5.68;;;;;;;25.15;52.19;99584.19;5152450;27;20052;-43
2022/08/11 01:20:41;;;;;;;6.13;5.50;;;;;;;25.13;51.48;99580.97;5151969;27;20065;-43
2022/08/11 01:23:31;;;;;;;6.55;5.00;;;;;;;25.14;51.73;99574.41;5152203;27;20022;-44
2022/08/11 01:26:30;;;;;;;7.07;5.57;;;;;;;24.55;52.84;99579.66;5152002;27;20051;-42
2022/08/11 01:29:12;;;;;;;5.47;4.97;;;;;;;24.84;52.21;99576.66;5152273;27;20045;-43
2022/08/11 01:32:15;;;;;;;5.65;4.88;;;;;;;24.80;52.04;99575.63;5152544;27;20097;-44
2022/08/11 01:35:15;;;;;;;7.20;5.20;;;;;;;24.88;51.37;99574.94;5151798;27;20142;-43
2022/08/11 01:38:08;;;;;;;7.45;5.20;;;;;;;24.54;52.33;99578.03;5127432;27;20110;-44
2022/08/11 01:40:55;;;;;;;6.05;5.18;;;;;;;24.77;51.68;99587.16;5151939;27;20031;-43
2022/08/11 01:46:31;;;;;;;5.40;4.47;;;;;;;25.32;49.85;99578.97;5152445;27;20110;-44
2022/08/11 01:49:21;;;;;;;5.20;4.60;;;;;;;24.90;50.82;99575.47;5151982;27;20439;-42
2022/08/11 01:52:08;;;;;;;5.57;4.57;;;;;;;24.80;51.08;99588.44;5151968;27;20019;-43
2022/08/11 01:54:47;;;;;;;5.38;4.88;;;;;;;24.96;50.48;99579.69;5151653;27;20160;-44
2022/08/11 01:57:49;;;;;;;4.72;4.32;;;;;;;25.07;50.05;99582.97;5151864;27;20064;-46
2022/08/11 02:00:29;;;;;;;6.05;4.55;;;;;;;24.76;50.59;99590.97;5151890;27;20368;-43
2022/08/11 02:02:57;;;;;;;7.22;4.30;;;;;;;24.65;50.81;99586.81;5151866;27;20092;-46
2022/08/11 02:05:25;;;;;;;5.67;4.50;;;;;;;24.62;51.22;99581.97;5151747;27;20078;-43
2022/08/11 02:08:08;;;;;;;5.40;4.50;;;;;;;24.81;50.16;99563.66;5151767;27;20054;-45
2022/08/11 02:13:52;;;;;;;4.88;4.38;;;;;;;25.43;48.56;99570.56;5151976;27;20130;-44
2022/08/11 02:16:54;;;;;;;4.88;4.43;;;;;;;24.87;49.75;99562.44;5151220;27;20023;-44
2022/08/11 02:26:06;;;;;;;;;;;;;;;25.60;48.18;99567.97;5081046;28;20070;-43
2022/08/11 02:28:48;;;;;;;5.35;4.35;;;;;;;25.44;48.23;99566.72;5102866;28;19912;-46
2022/08/11 02:34:47;;;;;;;6.22;4.38;;;;;;;24.80;50.09;99563.97;5114857;28;20083;-42
2022/08/11 02:37:15;;;;;;;4.82;4.20;;;;;;;24.92;49.53;99565.06;5113836;28;20073;-43
2022/08/11 02:40:09;;;;;;;6.15;4.57;;;;;;;25.36;48.28;99565.53;5114170;28;20344;-42
2022/08/11 02:42:47;;;;;;;4.80;4.32;;;;;;;24.99;49.27;99570.09;5114266;28;20027;-44
2022/08/11 02:45:40;;;;;;;4.90;4.40;;;;;;;24.75;49.92;99578.44;5114115;28;20016;-43
2022/08/11 02:51:52;;;;;;;7.82;4.45;;;;;;;25.33;48.30;99564.22;5114408;28;20041;-44
2022/08/11 02:54:37;;;;;;;5.00;4.50;;;;;;;25.10;48.81;99576.13;5113832;28;20110;-44
2022/08/11 02:57:12;;;;;;;4.85;4.20;;;;;;;24.76;49.46;99577.34;5113872;28;20024;-43
2022/08/11 02:59:59;;;;;;;5.78;4.50;;;;;;;24.73;49.61;99564.34;5114005;28;20148;-43
2022/08/11 03:02:30;;;;;;;7.85;4.50;;;;;;;24.68;50.01;99576.16;5114057;27;20035;-44
2022/08/11 03:05:06;;;;;;;6.07;4.70;;;;;;;25.15;48.82;99573.28;5113953;28;20031;-45
2022/08/11 03:08:12;;;;;;;5.05;4.43;;;;;;;25.16;48.55;99573.00;5113538;28;20020;-43
2022/08/11 03:16:53;;;;;;;5.80;5.20;;;;;;;24.89;50.25;99579.28;5113981;28;20654;-45
2022/08/11 03:19:24;;;;;;;11.00;7.55;;;;;;;25.36;47.67;99574.50;5113524;28;20039;-44
2022/08/11 03:22:21;;;;;;;7.85;4.40;;;;;;;24.64;49.40;99582.50;5113538;28;20102;-42
2022/08/11 03:25:04;;;;;;;7.43;4.75;;;;;;;24.31;50.25;99577.88;5113076;28;20039;-42
2022/08/11 03:27:52;;;;;;;4.88;4.20;;;;;;;24.47;50.06;99577.63;5151271;27;20125;-45
2022/08/11 03:30:47;;;;;;;6.30;4.32;;;;;;;24.62;49.86;99585.53;5154346;27;20023;-43
2022/08/11 03:36:27;;;;;;;6.13;4.60;;;;;;;24.90;49.70;99577.34;5155227;27;20046;-43
2022/08/11 03:39:08;;;;;;;7.93;4.60;;;;;;;24.78;50.18;99578.66;5154692;27;20049;-42
2022/08/11 03:41:43;;;;;;;5.10;4.60;;;;;;;24.79;49.90;99565.88;5153950;27;20026;-42
2022/08/11 03:44:27;;;;;;;6.40;4.65;;;;;;;25.22;48.90;99572.88;5154030;27;20212;-43
2022/08/11 03:47:24;;;;;;;5.68;4.38;;;;;;;25.27;48.34;99573.63;5154290;27;20030;-43
2022/08/11 03:49:55;;;;;;;9.88;4.80;;;;;;;25.03;49.33;99575.75;5132250;27;20027;-44
2022/08/11 03:52:48;;;;;;;5.93;4.80;;;;;;;25.06;49.28;99578.66;5153953;27;20056;-42
2022/08/11 03:55:43;;;;;;;5.65;4.70;;;;;;;25.25;48.22;99573.13;5154214;27;20027;-41
2022/08/11 03:58:21;;;;;;;6.80;5.10;;;;;;;25.58;47.63;99575.66;5154047;27;20023;-42
2022/08/11 04:01:14;;;;;;;9.32;6.05;;;;;;;25.33;48.27;99582.50;5153949;27;20030;-44
2022/08/11 04:03:55;;;;;;;7.38;4.60;;;;;;;25.33;48.36;99585.22;5153404;27;20026;-43
2022/08/11 04:06:23;;;;;;;6.97;4.50;;;;;;;25.48;47.92;99584.06;5153995;27;20026;-43
2022/08/11 04:09:23;;;;;;;5.03;4.43;;;;;;;26.04;47.03;99590.16;5153992;27;20042;-42
2022/08/11 04:12:04;;;;;;;6.55;4.82;;;;;;;26.49;46.04;99588.16;5153957;27;20106;-44
2022/08/11 04:17:47;;;;;;;8.65;7.65;;;;;;;26.41;46.10;99590.88;5153966;27;20398;-44
2022/08/11 04:20:50;;;;;;;9.85;5.95;;;;;;;26.78;45.29;99589.59;5153689;27;20344;-42
2022/08/11 04:23:25;;;;;;;14.70;13.15;;;;;;;27.52;43.84;99589.97;5153341;27;20027;-43
2022/08/11 04:26:16;;;;;;;8.32;6.40;;;;;;;27.15;44.21;99589.38;5153331;27;20051;-43
2022/08/11 04:28:58;;;;;;;7.70;4.90;;;;;;;26.79;44.90;99601.31;5123877;27;20142;-43
2022/08/11 04:31:42;;;;;;;7.50;5.30;;;;;;;26.83;44.97;99594.94;5153400;27;20591;-43
2022/08/11 04:34:34;;;;;;;13.43;4.97;;;;;;;26.88;45.04;99597.53;5152920;27;20030;-42
2022/08/11 04:40:18;;;;;;;8.63;5.35;;;;;;;26.81;45.47;99597.19;5153285;27;20033;-44
2022/08/11 04:45:46;;;;;;;6.72;4.70;;;;;;;26.88;45.29;99603.00;5152838;27;20033;-43
2022/08/11 05:07:05;;;;;;;13.40;9.48;;;;;;;27.27;44.33;99593.16;5152220;27;20449;-42
2022/08/11 05:09:48;;;;;;;9.63;5.80;;;;;;;27.53;43.98;99588.84;5152758;27;20050;-42
2022/08/11 05:12:40;;;;;;;6.80;4.53;;;;;;;27.73;43.36;99590.16;5152787;27;20114;-43
2022/08/11 05:35:02;;;;;;;9.60;5.25;;;;;;;28.56;43.33;99608.22;5152354;27;20133;-44
2022/08/11 05:37:27;;;;;;;6.95;5.00;;;;;;;28.18;43.43;99600.72;5152123;27;20027;-42
2022/08/11 05:57:20;;;;;;;8.35;4.78;;;;;;;27.87;44.00;99608.00;5151626;27;20073;-43
2022/08/11 05:59:47;;;;;;;13.25;6.45;;;;;;;28.01;43.45;99607.84;5151104;27;20027;-42
2022/08/11 06:02:13;;;;;;;7.70;4.68;;;;;;;27.70;44.00;99607.97;5151422;27;20474;-44
2022/08/11 06:04:39;;;;;;;10.55;5.47;;;;;;;27.58;44.29;99614.06;5151214;27;20022;-43
2022/08/11 06:07:08;;;;;;;8.32;4.90;;;;;;;27.81;44.01;99612.00;5151828;27;20022;-46
2022/08/11 06:09:45;;;;;;;5.97;4.47;;;;;;;28.19;43.35;99614.09;5151262;27;20447;-42
2022/08/11 06:12:16;;;;;;;8.77;5.25;;;;;;;28.80;41.84;99611.19;5151658;27;20459;-43
2022/08/11 06:14:43;;;;;;;6.57;4.72;;;;;;;28.40;42.10;99610.66;5151466;27;20046;-43
2022/08/11 06:17:09;;;;;;;5.65;4.50;;;;;;;28.53;41.67;99606.94;5151623;27;20041;-44
2022/08/11 06:19:39;;;;;;;5.25;4.30;;;;;;;28.90;41.47;99607.31;5151586;27;20111;-43
2022/08/11 06:22:08;;;;;;;6.70;4.40;;;;;;;29.09;40.47;99606.84;5150996;27;20410;-43
2022/08/11 06:24:36;;;;;;;5.32;4.28;;;;;;;29.62;39.96;99605.44;5151453;27;20113;-42
2022/08/11 06:27:05;;;;;;;6.75;4.53;;;;;;;29.92;39.56;99593.59;5150703;27;20047;-43
2022/08/11 06:29:32;;;;;;;5.88;4.50;;;;;;;30.33;38.87;99600.97;5151282;27;20031;-45
2022/08/11 06:32:00;;;;;;;6.53;4.65;;;;;;;30.68;38.39;99603.28;5150935;27;20068;-46
2022/08/11 06:34:47;;;;;;;5.53;4.25;;;;;;;31.35;37.04;99597.56;5151511;27;20026;-44
2022/08/11 06:37:21;;;;;;;7.65;4.50;;;;;;;31.70;35.86;99591.53;5149933;27;20038;-45
2022/08/11 06:40:15;;;;;;;9.32;4.57;;;;;;;31.82;36.05;99590.72;5151383;27;20026;-44
2022/08/11 06:43:00;;;;;;;5.88;4.60;;;;;;;31.93;35.74;99587.09;5151154;27;20022;-44
2022/08/11 06:45:29;;;;;;;5.45;4.30;;;;;;;32.52;34.63;99598.50;5150961;27;20109;-44
2022/08/11 06:47:59;;;;;;;8.02;4.53;;;;;;;33.27;33.70;99594.03;5151240;27;20023;-43
2022/08/11 06:53:11;;;;;;;5.10;3.90;;;;;;;33.08;33.13;99597.50;5150978;27;20091;-43
2022/08/11 07:01:52;;;;;;;6.25;4.10;;;;;;;34.03;31.37;99602.69;5141904;27;20049;-45
2022/08/11 07:04:29;;;;;;;6.30;4.60;;;;;;;34.23;31.67;99591.66;5148798;27;20035;-46
2022/08/11 07:31:26;;;;;;;5.88;3.97;;;;;;;35.42;29.26;99599.88;5154707;27;20102;-38
2022/08/11 07:34:06;;;;;;;5.30;3.88;;;;;;;35.68;28.87;99607.38;5154278;27;20467;-37
2022/08/11 07:36:34;;;;;;;6.18;4.10;;;;;;;35.91;29.11;99607.25;5135159;27;20088;-37
2022/08/11 07:39:01;;;;;;;11.20;4.00;;;;;;;36.74;27.91;99599.75;5133549;27;20035;-37
2022/08/11 07:41:29;;;;;;;6.97;4.07;;;;;;;36.37;28.00;99603.38;5133379;27;20074;-37
2022/08/11 07:44:07;;;;;;;6.50;3.90;;;;;;;36.39;27.76;99599.03;5133315;27;20102;-37
2022/08/11 07:52:29;;;;;;;6.03;3.97;;;;;;;36.16;27.83;99599.19;5133820;27;20118;-37
2022/08/11 07:54:58;;;;;;;4.93;3.80;;;;;;;36.22;27.78;99585.03;5133163;27;20149;-37
2022/08/11 08:19:24;;;;;;;5.78;4.30;;;;;;;36.94;27.72;99578.91;5132865;27;20106;-37
2022/08/11 08:21:51;;;;;;;5.75;4.05;;;;;;;36.96;27.09;99586.84;5132746;27;20407;-37
2022/08/11 08:24:21;;;;;;;7.63;4.25;;;;;;;36.77;27.33;99580.38;5133172;27;20059;-38
2022/08/11 08:27:00;;;;;;;4.30;3.90;;;;;;;36.79;27.67;99566.16;5132764;27;20152;-37
2022/08/11 08:32:16;;;;;;;7.68;3.97;;;;;;;37.15;26.96;99575.50;5133117;27;20089;-38
2022/08/11 08:34:43;;;;;;;6.78;5.18;;;;;;;36.47;28.08;99568.66;5132720;27;20023;-37
2022/08/11 08:37:08;;;;;;;9.60;4.90;;;;;;;35.62;28.88;99565.38;5132641;27;20554;-37
2022/08/11 08:39:36;;;;;;;5.90;4.80;;;;;;;35.47;29.30;99565.56;5132450;27;20027;-37
2022/08/11 08:42:08;;;;;;;9.60;4.90;;;;;;;35.07;29.85;99569.75;5132479;27;20131;-36
2022/08/11 08:44:35;;;;;;;4.95;4.40;;;;;;;34.95;29.99;99566.03;5132817;27;20375;-39
2022/08/11 08:47:04;;;;;;;7.05;4.38;;;;;;;35.37;30.02;99567.81;5132225;27;20034;-37
2022/08/11 08:49:36;;;;;;;5.57;4.30;;;;;;;36.13;29.04;99563.94;5132396;27;20041;-36
2022/08/11 08:52:06;;;;;;;7.20;5.30;;;;;;;35.38;28.60;99554.78;5131687;27;20050;-36
2022/08/11 08:54:37;;;;;;;6.32;4.70;;;;;;;35.80;28.39;99562.03;5131793;27;20019;-37
2022/08/11 08:57:06;;;;;;;4.72;3.95;;;;;;;35.73;28.83;99553.66;5131919;27;20046;-37
2022/08/11 08:59:36;;;;;;;6.38;4.20;;;;;;;35.97;28.12;99553.13;5132241;27;20054;-37
2022/08/11 09:02:04;;;;;;;5.82;4.20;;;;;;;36.09;28.30;99554.03;5132080;27;20105;-38
2022/08/11 09:04:31;;;;;;;4.88;3.72;;;;;;;36.05;27.30;99559.53;5132381;27;20083;-37
2022/08/11 09:06:59;;;;;;;5.25;4.30;;;;;;;36.87;26.54;99553.13;5131755;27;20027;-37
2022/08/11 09:09:26;;;;;;;6.10;4.10;;;;;;;36.30;27.55;99545.16;5132189;27;20493;-37
2022/08/11 09:11:53;;;;;;;4.50;3.50;;;;;;;35.91;27.32;99545.53;5131920;27;20234;-38
2022/08/11 09:14:23;;;;;;;6.50;3.97;;;;;;;36.46;26.65;99539.34;5131887;27;20118;-37
2022/08/11 09:16:50;;;;;;;4.57;3.92;;;;;;;36.63;26.73;99537.88;5131506;27;20482;-37
2022/08/11 09:19:19;;;;;;;5.10;3.90;;;;;;;36.93;26.69;99541.28;5132109;27;20026;-37
2022/08/11 09:26:58;;;;;;;5.38;3.80;;;;;;;36.93;26.75;99540.47;5131491;27;20023;-37
2022/08/11 09:27:22;;;;;;;4.25;3.70;;;;;;;36.90;25.47;99530.16;5131070;27;20070;-37
2022/08/11 09:29:49;;;;;;;5.13;3.42;;;;;;;37.70;25.12;99530.19;5130166;27;20019;-37
2022/08/11 09:32:19;;;;;;;4.82;3.67;;;;;;;37.58;24.91;99524.16;5131215;27;20447;-37
2022/08/11 09:34:44;;;;;;;3.65;3.35;;;;;;;36.92;25.53;99528.63;5134442;27;20015;-37
2022/08/11 09:45:25;;;;;;;6.50;4.13;;;;;;;36.43;27.29;99507.66;5152217;27;20087;-38
2022/08/11 09:47:51;;;;;;;5.13;3.95;;;;;;;36.59;26.85;99507.38;5152205;27;20023;-37
2022/08/11 09:50:17;;;;;;;5.35;3.88;;;;;;;36.49;26.40;99505.34;5152394;27;20042;-36
2022/08/11 09:52:44;;;;;;;5.82;4.18;;;;;;;35.84;27.92;99507.50;5151980;27;20086;-38
2022/08/11 09:55:13;;;;;;;5.75;4.25;;;;;;;35.19;27.92;99501.22;5151619;27;20053;-37
2022/08/11 10:00:29;;;;;;;4.63;4.15;;;;;;;35.55;27.35;99498.88;5151897;27;20034;-38
2022/08/11 10:02:55;;;;;;;5.57;4.05;;;;;;;34.84;27.75;99487.69;5151823;27;20053;-37
2022/08/11 10:08:10;;;;;;;6.97;3.95;;;;;;;35.15;27.87;99492.06;5151954;27;20117;-38
2022/08/11 10:10:38;;;;;;;7.30;4.35;;;;;;;34.99;28.44;99494.22;5151497;27;20110;-37
2022/08/11 10:13:07;;;;;;;7.07;4.18;;;;;;;34.82;28.55;99495.56;5151909;27;20181;-37
2022/08/11 10:15:38;;;;;;;6.07;4.00;;;;;;;34.94;28.40;99489.81;5151450;27;20033;-37
2022/08/11 10:21:10;;;;;;;6.00;3.85;;;;;;;34.96;28.32;99493.00;5151704;27;20445;-38
2022/08/11 10:34:40;;;;;;;5.88;4.05;;;;;;;35.18;27.53;99485.00;5151610;27;20445;-38
2022/08/11 10:37:06;;;;;;;4.75;3.83;;;;;;;35.16;28.50;99481.78;5151047;27;20040;-37
2022/08/11 10:39:33;;;;;;;4.30;3.90;;;;;;;35.60;27.54;99476.44;5151206;27;20023;-38
2022/08/11 10:44:46;;;;;;;8.80;5.85;;;;;;;35.86;26.49;99473.94;5151785;27;20086;-37
2022/08/11 11:01:11;;;;;;;5.22;3.55;;;;;;;36.77;25.81;99465.97;5155732;27;20529;-37
2022/08/11 11:03:37;;;;;;;8.30;3.60;;;;;;;37.09;24.74;99451.44;5155298;27;20122;-38
2022/08/11 11:06:11;;;;;;;4.45;3.50;;;;;;;36.89;25.03;99450.97;5154868;27;20027;-36
2022/08/11 11:08:52;;;;;;;6.25;3.30;;;;;;;37.02;24.38;99440.34;5155271;27;20129;-37
2022/08/11 11:11:20;;;;;;;4.80;3.42;;;;;;;37.74;24.10;99444.94;5154915;27;20067;-37
2022/08/11 11:19:24;;;;;;;3.30;3.00;;;;;;;36.48;24.09;99435.28;5155191;27;20122;-37
2022/08/11 11:22:36;;;;;;;4.63;3.10;;;;;;;36.95;23.47;99433.56;5155219;27;20022;-37
2022/08/11 11:25:05;;;;;;;4.40;3.20;;;;;;;36.98;24.14;99430.00;5154905;27;20035;-37
2022/08/11 11:27:45;;;;;;;4.28;2.95;;;;;;;37.28;23.52;99425.38;5154940;27;20492;-37
2022/08/11 11:30:14;;;;;;;4.32;2.88;;;;;;;37.15;22.97;99419.41;5154744;27;20038;-37
2022/08/11 11:33:13;;;;;;;4.53;3.00;;;;;;;36.81;23.23;99421.63;5154800;27;20018;-38
2022/08/11 11:36:32;;;;;;;3.20;2.90;;;;;;;36.39;23.89;99413.47;5143463;27;20426;-37
2022/08/11 11:38:58;;;;;;;3.70;2.97;;;;;;;36.83;23.23;99419.28;5070526;28;20060;-37
2022/08/11 11:41:24;;;;;;;4.68;2.80;;;;;;;37.27;23.47;99410.72;5120817;27;20096;-37
2022/08/11 11:43:53;;;;;;;3.38;2.92;;;;;;;37.40;22.42;99411.16;5134065;27;20118;-36
2022/08/11 11:46:19;;;;;;;4.53;2.70;;;;;;;37.06;22.29;99405.09;5133933;27;20031;-37
2022/08/11 11:48:45;;;;;;;3.88;2.85;;;;;;;36.79;23.39;99414.50;5133634;27;20493;-38
2022/08/11 11:51:12;;;;;;;7.50;2.63;;;;;;;37.03;23.27;99411.41;5133301;27;20110;-37
2022/08/11 11:53:42;;;;;;;3.13;2.55;;;;;;;37.69;21.65;99398.13;5133623;27;20516;-37
2022/08/11 11:56:08;;;;;;;3.65;2.90;;;;;;;37.13;22.11;99399.56;5133357;27;20027;-38
2022/08/11 12:01:24;;;;;;;3.83;3.40;;;;;;;37.00;23.65;99387.25;5133881;27;20083;-37
2022/08/11 12:03:51;;;;;;;3.33;2.65;;;;;;;37.70;23.01;99387.81;5133079;27;20050;-37
2022/08/11 12:06:20;;;;;;;4.93;3.00;;;;;;;36.60;23.79;99376.75;5133591;27;20110;-37
2022/08/11 12:08:48;;;;;;;4.45;3.20;;;;;;;36.49;23.35;99375.91;5133290;27;20490;-38
2022/08/11 12:14:03;;;;;;;3.40;3.10;;;;;;;36.69;23.27;99367.31;5133242;27;20023;-38
2022/08/11 12:16:29;;;;;;;4.13;3.13;;;;;;;36.47;23.69;99377.50;5132919;27;20626;-37
2022/08/11 12:18:59;;;;;;;3.40;3.05;;;;;;;35.68;24.71;99369.41;5133438;27;20061;-36
2022/08/11 12:21:29;;;;;;;4.63;3.33;;;;;;;35.77;24.99;99371.84;5133268;27;20495;-37
2022/08/11 12:29:47;;;;;;;3.53;3.13;;;;;;;36.59;23.52;99364.09;5089778;28;20061;-37
2022/08/11 12:32:13;;;;;;;3.00;2.70;;;;;;;36.56;22.97;99370.41;5089811;28;20527;-37
2022/08/11 12:34:38;;;;;;;4.50;2.72;;;;;;;37.50;22.01;99365.19;5089596;28;20035;-37
2022/08/11 12:37:09;;;;;;;3.53;2.60;;;;;;;36.02;23.31;99369.25;5089331;28;20515;-38
2022/08/11 12:45:26;;;;;;;3.03;2.60;;;;;;;34.78;24.76;99356.56;5089447;28;20085;-37
2022/08/11 12:53:32;;;;;;;3.28;2.72;;;;;;;35.51;22.83;99353.41;5089570;28;20035;-36
2022/08/11 12:58:50;;;;;;;4.15;2.70;;;;;;;35.05;23.99;99354.50;5110796;28;20042;-37
2022/08/11 13:06:46;;;;;;;5.97;2.92;;;;;;;35.37;23.67;99357.63;5111472;28;20046;-36
2022/08/11 13:09:13;;;;;;;4.10;2.60;;;;;;;35.89;23.09;99354.13;5111907;28;20027;-37
2022/08/11 13:14:31;;;;;;;3.13;2.80;;;;;;;36.36;22.91;99346.94;5111774;28;20134;-37
2022/08/11 13:19:44;;;;;;;3.30;3.00;;;;;;;36.10;23.31;99340.47;5112084;28;20030;-38
2022/08/11 13:22:11;;;;;;;4.20;2.90;;;;;;;35.39;24.33;99343.41;5111474;28;20019;-37
2022/08/11 13:24:38;;;;;;;4.95;2.75;;;;;;;35.57;23.78;99341.63;5111939;28;20019;-36
2022/08/11 13:27:04;;;;;;;3.42;2.90;;;;;;;35.84;23.75;99346.22;5125723;27;20188;-36
2022/08/11 13:29:30;;;;;;;3.78;3.08;;;;;;;35.75;23.96;99341.00;5132042;27;20507;-36
2022/08/11 13:31:58;;;;;;;4.13;3.10;;;;;;;35.61;24.73;99349.94;5131509;27;20504;-37
2022/08/11 13:34:25;;;;;;;;;;;;;;;35.30;24.87;99340.97;5132493;27;20019;-37
2022/08/11 13:36:54;;;;;;;3.38;3.08;;;;;;;34.99;25.05;99329.16;5132048;27;19908;-38
2022/08/11 13:39:25;;;;;;;3.47;3.17;;;;;;;34.26;25.51;99346.00;5131563;27;20018;-37
2022/08/11 13:41:55;;;;;;;4.53;3.00;;;;;;;34.10;25.95;99328.78;5131752;27;20130;-37
2022/08/11 13:44:21;;;;;;;3.85;3.10;;;;;;;34.37;25.62;99324.06;5131995;27;20079;-38
2022/08/11 13:46:47;;;;;;;4.57;2.92;;;;;;;34.35;26.16;99317.31;5132230;27;20055;-37
2022/08/11 13:49:16;;;;;;;4.20;2.88;;;;;;;34.21;25.91;99326.19;5131771;27;20023;-38
2022/08/11 13:51:45;;;;;;;3.85;2.95;;;;;;;34.05;26.07;99321.59;5131832;27;20026;-38
2022/08/11 13:54:26;;;;;;;5.57;3.45;;;;;;;34.30;25.30;99312.91;5131603;27;20111;-38
2022/08/11 13:56:55;;;;;;;4.95;2.90;;;;;;;34.44;25.46;99324.16;5131590;27;20065;-37
2022/08/11 13:59:24;;;;;;;8.07;3.35;;;;;;;34.23;26.80;99318.34;5131129;27;20474;-38
2022/08/11 14:02:03;;;;;;;3.58;2.92;;;;;;;34.18;26.54;99322.22;5131136;27;20054;-38
2022/08/11 14:04:34;;;;;;;3.25;2.95;;;;;;;34.15;25.81;99311.88;5131289;27;20220;-38
2022/08/11 14:07:06;;;;;;;3.80;3.00;;;;;;;34.21;26.60;99315.94;5131619;27;20494;-37
2022/08/11 14:09:36;;;;;;;3.42;2.88;;;;;;;33.76;27.09;99317.63;5131033;27;20030;-37
2022/08/11 14:15:11;;;;;;;8.13;3.30;;;;;;;33.84;27.35;99318.53;5131234;28;20033;-37
2022/08/11 14:17:39;;;;;;;3.42;2.90;;;;;;;33.87;27.78;99323.28;5130579;28;20035;-37
2022/08/11 14:20:08;;;;;;;4.63;3.00;;;;;;;33.87;27.85;99315.84;5130759;28;20463;-38
2022/08/11 14:22:38;;;;;;;3.42;3.10;;;;;;;33.72;27.15;99322.28;5130670;28;20031;-37
2022/08/11 14:25:05;;;;;;;3.50;3.10;;;;;;;33.17;28.05;99321.69;5131424;28;20111;-37
2022/08/11 14:27:31;;;;;;;4.28;3.10;;;;;;;33.08;28.12;99324.66;5132019;27;20103;-38
2022/08/11 14:29:59;;;;;;;3.78;2.90;;;;;;;32.38;29.04;99329.13;5135726;27;20023;-37
2022/08/11 14:32:25;;;;;;;6.40;3.03;;;;;;;32.46;29.20;99322.63;5135408;27;20033;-38
2022/08/11 14:34:52;;;;;;;4.30;2.90;;;;;;;32.99;28.08;99324.09;5135180;27;20038;-38
2022/08/11 14:37:22;;;;;;;3.90;2.90;;;;;;;32.41;28.37;99322.91;5134869;27;20019;-36
2022/08/11 14:39:53;;;;;;;4.45;3.20;;;;;;;33.04;28.07;99324.59;5134998;27;20031;-37
2022/08/11 14:47:56;;;;;;;3.40;3.10;;;;;;;32.70;28.07;99324.31;5134929;27;20050;-37
2022/08/11 14:50:25;;;;;;;4.00;3.03;;;;;;;33.08;27.70;99319.94;5134629;27;20026;-37
2022/08/11 14:52:53;;;;;;;;;;;;;;;32.47;27.82;99329.72;5135040;27;20023;-37
2022/08/11 14:58:08;;;;;;;5.57;2.60;;;;;;;32.52;27.43;99323.16;5134911;27;20030;-38
2022/08/11 15:00:34;;;;;;;4.13;2.72;;;;;;;32.48;27.73;99325.00;5134621;27;20550;-37
2022/08/11 15:03:10;;;;;;;3.45;2.28;;;;;;;32.83;27.42;99324.19;5134343;27;20019;-38
2022/08/11 15:05:50;;;;;;;3.03;2.22;;;;;;;32.65;27.71;99324.63;5134378;27;20161;-38
2022/08/11 15:08:17;;;;;;;3.17;2.10;;;;;;;32.69;27.36;99332.94;5134180;27;20031;-38
2022/08/11 15:10:44;;;;;;;2.22;2.03;;;;;;;33.19;27.01;99325.69;5134198;27;20023;-35
2022/08/11 15:13:10;;;;;;;3.85;2.20;;;;;;;33.14;27.09;99327.94;5134419;27;20453;-37
2022/08/11 15:18:23;;;;;;;5.85;5.28;;;;;;;32.54;27.32;99337.34;5134185;27;20095;-37
2022/08/11 15:37:25;;;;;;;3.13;2.00;;;;;;;32.31;27.91;99327.03;5133869;27;20120;-37
2022/08/11 15:37:36;;;;;;;2.85;2.13;;;;;;;31.74;28.94;99323.72;5134414;27;20138;-37
2022/08/11 15:46:01;;;;;;;3.53;2.08;;;;;;;31.31;29.13;99319.88;5133911;27;20050;-37
2022/08/11 15:48:32;;;;;;;15.68;14.10;;;;;;;31.67;29.04;99326.28;5133887;27;20118;-38
2022/08/11 15:51:09;;;;;;;3.78;2.20;;;;;;;31.58;29.23;99327.63;5134062;27;20027;-37
2022/08/11 15:53:42;;;;;;;2.63;2.20;;;;;;;31.67;28.86;99320.00;5133797;27;20031;-37
2022/08/11 15:56:09;;;;;;;9.88;2.20;;;;;;;30.86;30.12;99322.94;5133364;27;20033;-37
2022/08/11 16:04:15;;;;;;;4.90;2.25;;;;;;;30.87;30.29;99335.53;5133578;27;20058;-37
2022/08/11 16:06:52;;;;;;;4.30;2.25;;;;;;;30.58;30.69;99340.19;5133139;27;20110;-38
2022/08/11 16:09:26;;;;;;;4.70;2.40;;;;;;;30.88;30.71;99348.91;5133991;27;20423;-38
2022/08/11 16:11:55;;;;;;;2.65;2.05;;;;;;;30.95;30.81;99371.09;5133702;27;20047;-37
2022/08/11 16:17:10;;;;;;;5.80;4.28;;;;;;;31.30;30.80;99383.41;5133532;27;20122;-37
2022/08/11 16:19:39;;;;;;;4.70;2.58;;;;;;;30.87;31.83;99399.47;5132935;27;20186;-36
2022/08/11 16:22:10;;;;;;;3.45;2.20;;;;;;;30.54;32.97;99416.13;5133395;27;20470;-37
2022/08/11 16:24:42;;;;;;;6.82;5.60;;;;;;;30.74;33.10;99411.66;5133018;27;20023;-37
2022/08/11 16:27:10;;;;;;;5.53;4.65;;;;;;;31.03;32.63;99440.78;5132958;27;20130;-36
2022/08/11 16:29:37;;;;;;;9.23;3.60;;;;;;;30.78;35.95;99442.75;5133020;27;20015;-37
2022/08/11 16:32:16;;;;;;;5.68;3.38;;;;;;;29.25;40.24;99437.28;5132929;27;20027;-37
2022/08/11 16:40:21;;;;;;;5.60;3.17;;;;;;;29.05;40.84;99467.06;5153705;27;20034;-38
2022/08/11 16:48:20;;;;;;;5.25;3.40;;;;;;;28.50;43.86;99497.31;5153772;27;20623;-37
2022/08/11 16:50:45;;;;;;;5.32;3.45;;;;;;;28.42;44.77;99512.63;5151373;27;20015;-37
2022/08/11 16:53:11;;;;;;;5.47;3.45;;;;;;;28.49;44.54;99512.13;5153051;27;20079;-37
2022/08/11 16:55:37;;;;;;;4.55;3.50;;;;;;;27.56;48.11;99517.94;5153031;27;20026;-38
2022/08/11 17:00:50;;;;;;;7.07;3.92;;;;;;;27.23;51.25;99523.88;5152771;27;20034;-36
2022/08/11 17:14:43;;;;;;;4.78;4.22;;;;;;;26.40;57.24;99557.31;5153150;27;20088;-37
2022/08/11 17:17:22;;;;;;;6.65;4.28;;;;;;;26.68;56.01;99554.41;5152990;27;20029;-37
2022/08/11 17:19:52;;;;;;;11.13;7.50;;;;;;;26.12;58.00;99568.41;5152791;27;20041;-37
2022/08/11 17:25:05;;;;;;;5.80;4.70;;;;;;;26.19;58.65;99564.44;5153193;27;20033;-37